Weather at Charles B. Wheeler Downtown Airport

Public forecast

Using degrees Fahrenheit for public forecast. Weather courtesy of forecast.io.

Current aviation weather report (METAR) for Charles B. Wheeler Downtown Airport

2024/05/29 17:54 (retrieved 47 minutes ago)

KMKC 291754Z 10010G16KT 10SM CLR 25/11 A3017 RMK AO2 SLP211 T02500106 10256 20189 56013

Aviation forecast (TAF) for Charles B. Wheeler Downtown Airport

2024/05/29 18:22 (retrieved 19 minutes ago)

TAF KMKC 291720Z 2918/3018 09008KT P6SM FEW250 FM301300 13007KT P6SM BKN060